Time,TemperatureF,DewpointF,PressureIn,WindDirection,WindDirectionDegrees,WindSpeedMPH,WindSpeedGustMPH,Humidity,HourlyPrecipIn,Conditions,Clouds,dailyrainin,SoftwareType,DateUTC
2013-01-21 00:04:00,25.0,12.0,30.01,SSE,161,2.0,3.0,56,0.00,,,0.00,,2013-01-21 05:04:00,
2013-01-21 00:12:00,25.0,12.0,30.01,SSE,161,2.0,3.0,56,0.00,,,0.00,,2013-01-21 05:12:00,
2013-01-21 00:22:00,25.0,12.0,30.00,West,270,1.0,2.0,56,0.00,,,0.00,,2013-01-21 05:22:00,
2013-01-21 00:34:00,25.0,12.0,30.00,NW,311,0.0,1.0,56,0.00,,,0.00,,2013-01-21 05:34:00,
2013-01-21 00:42:00,25.0,12.0,30.00,NW,311,0.0,1.0,56,0.00,,,0.00,,2013-01-21 05:42:00,
2013-01-21 00:53:00,25.0,12.0,30.00,WSW,256,0.0,1.0,57,0.00,,,0.00,,2013-01-21 05:53:00,
2013-01-21 01:03:00,25.0,12.0,30.00,WSW,250,0.0,2.0,57,0.00,,,0.00,,2013-01-21 06:03:00,
2013-01-21 01:13:00,25.0,12.0,30.00,WSW,250,0.0,2.0,57,0.00,,,0.00,,2013-01-21 06:13:00,
2013-01-21 01:23:00,24.0,11.0,29.99,WSW,248,1.0,2.0,58,0.00,,,0.00,,2013-01-21 06:23:00,
2013-01-21 01:33:00,24.0,11.0,29.99,WSW,248,0.0,1.0,58,0.00,,,0.00,,2013-01-21 06:33:00,
2013-01-21 01:43:00,24.0,11.0,29.99,WSW,248,0.0,1.0,58,0.00,,,0.00,,2013-01-21 06:43:00,
2013-01-21 01:53:00,24.0,11.0,30.00,WSW,248,2.0,3.0,58,0.00,,,0.00,,2013-01-21 06:53:00,
2013-01-21 02:03:00,23.0,11.0,30.00,WSW,248,2.0,3.0,59,0.00,,,0.00,,2013-01-21 07:03:00,
2013-01-21 02:13:00,23.0,11.0,30.00,WSW,248,2.0,3.0,59,0.00,,,0.00,,2013-01-21 07:13:00,
2013-01-21 02:23:00,23.0,11.0,30.00,WSW,248,3.0,6.0,59,0.00,,,0.00,,2013-01-21 07:23:00,
2013-01-21 02:33:00,23.0,11.0,30.00,WSW,248,3.0,5.0,60,0.00,,,0.00,,2013-01-21 07:33:00,
2013-01-21 02:42:00,23.0,11.0,30.00,WSW,248,3.0,5.0,60,0.00,,,0.00,,2013-01-21 07:42:00,
2013-01-21 02:53:00,23.0,11.0,30.00,WSW,248,5.0,6.0,60,0.00,,,0.00,,2013-01-21 07:53:00,
2013-01-21 03:03:00,23.0,12.0,30.00,WSW,248,3.0,6.0,61,0.00,,,0.00,,2013-01-21 08:03:00,
2013-01-21 03:14:00,23.0,12.0,30.00,WSW,248,3.0,6.0,61,0.00,,,0.00,,2013-01-21 08:14:00,
2013-01-21 03:23:00,24.0,12.0,30.01,SSW,207,3.0,7.0,60,0.00,,,0.00,,2013-01-21 08:23:00,
2013-01-21 03:33:00,24.0,12.0,30.01,WSW,250,3.0,7.0,60,0.00,,,0.00,,2013-01-21 08:33:00,
2013-01-21 03:42:00,24.0,12.0,30.01,WSW,250,3.0,7.0,60,0.00,,,0.00,,2013-01-21 08:42:00,
2013-01-21 03:53:00,24.0,12.0,30.00,WSW,251,5.0,6.0,59,0.00,,,0.00,,2013-01-21 08:53:00,
2013-01-21 04:03:00,24.0,12.0,30.00,WSW,248,3.0,6.0,59,0.00,,,0.00,,2013-01-21 09:03:00,
2013-01-21 04:12:00,24.0,12.0,30.00,WSW,248,3.0,6.0,59,0.00,,,0.00,,2013-01-21 09:12:00,
2013-01-21 04:23:00,24.0,12.0,30.00,WSW,248,3.0,6.0,59,0.00,,,0.00,,2013-01-21 09:23:00,
2013-01-21 04:33:00,24.0,12.0,29.99,SW,226,3.0,5.0,59,0.00,,,0.00,,2013-01-21 09:33:00,
2013-01-21 04:42:00,24.0,12.0,29.99,SW,226,3.0,5.0,59,0.00,,,0.00,,2013-01-21 09:42:00,
2013-01-21 04:53:00,24.0,12.0,29.99,SW,226,3.0,5.0,59,0.00,,,0.00,,2013-01-21 09:53:00,
2013-01-21 05:02:00,23.0,10.0,29.98,WSW,248,3.0,6.0,58,0.00,,,0.00,,2013-01-21 10:02:00,
2013-01-21 05:12:00,23.0,10.0,29.98,WSW,248,3.0,6.0,58,0.00,,,0.00,,2013-01-21 10:12:00,
2013-01-21 05:22:00,23.0,11.0,29.98,WSW,248,2.0,3.0,59,0.00,,,0.00,,2013-01-21 10:22:00,
2013-01-21 05:33:00,23.0,11.0,29.97,WSW,248,2.0,5.0,59,0.00,,,0.00,,2013-01-21 10:33:00,
2013-01-21 05:43:00,23.0,11.0,29.97,WSW,248,2.0,5.0,59,0.00,,,0.00,,2013-01-21 10:43:00,
2013-01-21 05:53:00,23.0,11.0,29.97,WSW,248,2.0,3.0,60,0.00,,,0.00,,2013-01-21 10:53:00,
2013-01-21 06:03:00,23.0,11.0,29.97,West,265,2.0,3.0,60,0.00,,,0.00,,2013-01-21 11:03:00,
2013-01-21 06:13:00,23.0,11.0,29.97,West,265,2.0,3.0,60,0.00,,,0.00,,2013-01-21 11:13:00,
2013-01-21 06:23:00,23.0,12.0,29.97,WSW,254,3.0,5.0,61,0.00,,,0.00,,2013-01-21 11:23:00,
2013-01-21 06:33:00,23.0,12.0,29.97,SW,218,3.0,5.0,61,0.00,,,0.00,,2013-01-21 11:33:00,
2013-01-21 06:43:00,23.0,12.0,29.97,SW,218,3.0,5.0,61,0.00,,,0.00,,2013-01-21 11:43:00,
2013-01-21 06:53:00,24.0,12.0,29.97,WSW,250,2.0,6.0,60,0.00,,,0.00,,2013-01-21 11:53:00,
2013-01-21 07:02:00,24.0,12.0,29.97,SW,218,3.0,6.0,60,0.00,,,0.00,,2013-01-21 12:02:00,
2013-01-21 07:12:00,24.0,12.0,29.97,SW,218,3.0,6.0,60,0.00,,,0.00,,2013-01-21 12:12:00,
2013-01-21 07:22:00,24.0,13.0,29.97,West,270,3.0,5.0,61,0.00,,,0.00,,2013-01-21 12:22:00,
2013-01-21 07:33:00,24.0,13.0,29.97,WSW,253,3.0,6.0,61,0.00,,,0.00,,2013-01-21 12:33:00,
2013-01-21 07:42:00,24.0,13.0,29.97,WSW,253,3.0,6.0,61,0.00,,,0.00,,2013-01-21 12:42:00,
2013-01-21 07:53:00,24.0,13.0,29.97,NNE,22,2.0,5.0,61,0.00,,,0.00,,2013-01-21 12:53:00,
2013-01-21 08:03:00,24.0,13.0,29.97,WSW,248,2.0,3.0,61,0.00,,,0.00,,2013-01-21 13:03:00,
2013-01-21 08:13:00,24.0,13.0,29.97,WSW,248,2.0,3.0,61,0.00,,,0.00,,2013-01-21 13:13:00,
2013-01-21 08:23:00,24.0,13.0,29.96,SW,225,3.0,7.0,61,0.00,,,0.00,,2013-01-21 13:23:00,
2013-01-21 08:33:00,24.0,13.0,29.96,West,270,3.0,7.0,61,0.00,,,0.00,,2013-01-21 13:33:00,
2013-01-21 08:43:00,24.0,13.0,29.96,West,270,3.0,7.0,61,0.00,,,0.00,,2013-01-21 13:43:00,
2013-01-21 08:54:00,25.0,13.0,29.96,SW,225,5.0,9.0,60,0.00,,,0.00,,2013-01-21 13:54:00,
2013-01-21 09:03:00,25.0,13.0,29.96,SSW,202,5.0,7.0,60,0.00,,,0.00,,2013-01-21 14:03:00,
2013-01-21 09:12:00,25.0,13.0,29.96,SSW,202,5.0,7.0,60,0.00,,,0.00,,2013-01-21 14:12:00,
2013-01-21 09:23:00,25.0,13.0,29.96,WSW,248,5.0,7.0,59,0.00,,,0.00,,2013-01-21 14:23:00,
2013-01-21 09:32:00,26.0,14.0,29.96,West,270,5.0,7.0,60,0.00,,,0.00,,2013-01-21 14:32:00,
2013-01-21 09:43:00,26.0,14.0,29.96,West,270,5.0,7.0,60,0.00,,,0.00,,2013-01-21 14:43:00,
2013-01-21 09:53:00,26.0,13.0,29.96,WSW,248,6.0,9.0,57,0.00,,,0.00,,2013-01-21 14:53:00,
2013-01-21 10:03:00,26.0,13.0,29.96,WSW,248,6.0,9.0,57,0.00,,,0.00,,2013-01-21 15:03:00,
2013-01-21 10:13:00,26.0,13.0,29.96,WSW,248,6.0,9.0,57,0.00,,,0.00,,2013-01-21 15:13:00,
2013-01-21 10:23:00,26.0,13.0,29.96,WSW,248,5.0,8.0,57,0.00,,,0.00,,2013-01-21 15:23:00,
2013-01-21 10:33:00,26.0,13.0,29.95,WSW,248,5.0,8.0,57,0.00,,,0.00,,2013-01-21 15:33:00,
2013-01-21 10:43:00,26.0,13.0,29.95,WSW,248,5.0,8.0,57,0.00,,,0.00,,2013-01-21 15:43:00,
2013-01-21 10:53:00,27.0,14.0,29.95,WSW,248,4.0,7.0,57,0.00,,,0.00,,2013-01-21 15:53:00,
2013-01-21 11:03:00,26.0,13.0,29.95,West,267,5.0,7.0,57,0.00,,,0.00,,2013-01-21 16:03:00,
2013-01-21 11:13:00,26.0,13.0,29.95,West,267,5.0,7.0,57,0.00,,,0.00,,2013-01-21 16:13:00,
2013-01-21 11:23:00,27.0,15.0,29.94,WSW,248,3.0,7.0,59,0.00,,,0.00,,2013-01-21 16:23:00,
2013-01-21 11:33:00,27.0,15.0,29.92,NW,315,2.0,6.0,59,0.00,,,0.00,,2013-01-21 16:33:00,
2013-01-21 11:43:00,27.0,15.0,29.92,NW,315,2.0,6.0,59,0.00,,,0.00,,2013-01-21 16:43:00,
2013-01-21 11:53:00,28.0,16.0,29.91,WSW,248,2.0,5.0,59,0.00,,,0.00,,2013-01-21 16:53:00,
2013-01-21 12:03:00,28.0,16.0,29.91,SW,225,2.0,5.0,59,0.00,,,0.00,,2013-01-21 17:03:00,
2013-01-21 12:12:00,28.0,16.0,29.91,SW,225,2.0,5.0,59,0.00,,,0.00,,2013-01-21 17:12:00,
2013-01-21 12:23:00,28.0,16.0,29.89,West,270,2.0,6.0,59,0.00,,,0.00,,2013-01-21 17:23:00,
2013-01-21 12:33:00,28.0,16.0,29.88,WSW,249,2.0,3.0,59,0.00,,,0.00,,2013-01-21 17:33:00,
2013-01-21 12:43:00,28.0,16.0,29.88,WSW,249,2.0,3.0,59,0.00,,,0.00,,2013-01-21 17:43:00,
2013-01-21 12:53:00,28.0,16.0,29.86,NNE,21,5.0,6.0,61,0.00,,,0.00,,2013-01-21 17:53:00,
2013-01-21 13:03:00,28.0,16.0,29.86,SW,225,5.0,7.0,61,0.00,,,0.00,,2013-01-21 18:03:00,
2013-01-21 13:12:00,28.0,16.0,29.86,SW,225,5.0,7.0,61,0.00,,,0.00,,2013-01-21 18:12:00,
2013-01-21 13:23:00,28.0,17.0,29.85,South,181,3.0,6.0,63,0.00,,,0.00,,2013-01-21 18:23:00,
2013-01-21 13:33:00,28.0,18.0,29.84,WSW,245,2.0,6.0,66,0.00,,,0.00,,2013-01-21 18:33:00,
2013-01-21 13:43:00,28.0,18.0,29.84,WSW,245,2.0,6.0,66,0.00,,,0.00,,2013-01-21 18:43:00,
2013-01-21 13:53:00,28.0,18.0,29.84,WSW,245,2.0,6.0,66,0.00,,,0.00,,2013-01-21 18:53:00,
2013-01-21 14:03:00,28.0,18.0,29.84,WSW,245,2.0,6.0,66,0.00,,,0.00,,2013-01-21 19:03:00,
2013-01-21 14:12:00,28.0,18.0,29.84,WSW,245,2.0,6.0,66,0.00,,,0.00,,2013-01-21 19:12:00,
2013-01-21 19:53:00,25.0,18.0,29.84,WSW,255,2.0,3.0,75,0.00,,,0.00,,2013-01-22 00:53:00,
2013-01-21 20:02:00,25.0,18.0,29.84,WSW,255,2.0,3.0,75,0.00,,,0.00,,2013-01-22 01:02:00,
2013-01-21 20:12:00,25.0,18.0,29.84,WSW,255,2.0,3.0,75,0.00,,,0.00,,2013-01-22 01:12:00,
2013-01-21 20:23:00,23.0,16.0,29.84,WSW,248,3.0,8.0,73,0.00,,,0.00,,2013-01-22 01:23:00,
2013-01-21 20:33:00,23.0,16.0,29.85,West,277,3.0,7.0,73,0.00,,,0.00,,2013-01-22 01:33:00,
2013-01-21 20:43:00,23.0,16.0,29.85,West,277,3.0,7.0,73,0.00,,,0.00,,2013-01-22 01:43:00,
2013-01-21 20:53:00,22.0,14.0,29.85,WSW,255,3.0,5.0,71,0.00,,,0.00,,2013-01-22 01:53:00,
2013-01-21 21:02:00,22.0,14.0,29.85,WSW,240,3.0,6.0,72,0.00,,,0.00,,2013-01-22 02:02:00,
2013-01-21 21:12:00,22.0,14.0,29.85,WSW,240,3.0,6.0,72,0.00,,,0.00,,2013-01-22 02:12:00,
2013-01-21 21:22:00,22.0,14.0,29.84,WSW,248,2.0,5.0,71,0.00,,,0.00,,2013-01-22 02:22:00,
2013-01-21 21:32:00,22.0,14.0,29.83,WSW,248,2.0,5.0,71,0.00,,,0.00,,2013-01-22 02:32:00,
2013-01-21 21:43:00,22.0,14.0,29.83,WSW,248,2.0,5.0,71,0.00,,,0.00,,2013-01-22 02:43:00,
2013-01-21 21:53:00,21.0,13.0,29.83,WNW,290,2.0,9.0,70,0.00,,,0.00,,2013-01-22 02:53:00,
2013-01-21 22:03:00,21.0,12.0,29.83,West,274,2.0,3.0,69,0.00,,,0.00,,2013-01-22 03:03:00,
2013-01-21 22:12:00,21.0,12.0,29.83,West,274,2.0,3.0,69,0.00,,,0.00,,2013-01-22 03:12:00,
2013-01-21 22:22:00,21.0,12.0,29.83,NW,315,2.0,3.0,69,0.00,,,0.00,,2013-01-22 03:22:00,
2013-01-21 22:32:00,21.0,12.0,29.83,NNW,338,1.0,3.0,69,0.00,,,0.00,,2013-01-22 03:32:00,
2013-01-21 22:42:00,21.0,12.0,29.83,NNW,338,1.0,3.0,69,0.00,,,0.00,,2013-01-22 03:42:00,
2013-01-21 22:53:00,20.0,11.0,29.83,WSW,248,3.0,6.0,67,0.00,,,0.00,,2013-01-22 03:53:00,
2013-01-21 23:03:00,20.0,11.0,29.83,SW,225,3.0,6.0,66,0.00,,,0.00,,2013-01-22 04:03:00,
2013-01-21 23:12:00,20.0,11.0,29.83,SW,225,3.0,6.0,66,0.00,,,0.00,,2013-01-22 04:12:00,
2013-01-21 23:22:00,20.0,10.0,29.83,WSW,248,3.0,10.0,64,0.00,,,0.00,,2013-01-22 04:22:00,
2013-01-21 23:33:00,20.0,10.0,29.83,NW,315,3.0,5.0,64,0.00,,,0.00,,2013-01-22 04:33:00,
2013-01-21 23:42:00,20.0,10.0,29.83,NW,315,3.0,5.0,64,0.00,,,0.00,,2013-01-22 04:42:00,
2013-01-21 23:53:00,19.0,9.0,29.83,WSW,248,5.0,9.0,63,0.00,,,0.00,,2013-01-22 04:53:00,